Overijse, Belgium
Current Conditions -  °F | °C
As of 1:20 PM on Tuesday 27 Jan 2015 (Local Time) from EBBR Reporting Station
Broken Clouds Broken Clouds  
Wind Chill: 35°   Ceiling: 2000
Heat Index: 41°   Visibility: 6mi
Dew Point: 37°   Wind: 9mph
Humidity: 87%   Direction: 280°W
Pressure: 30.27"   Gusts: NA
Location:  50.77°N, 4.53°E
Report Text: EBBR 271220Z 28008KT 9999 SCT012 BKN020 05/03 Q1025 NOSIG
Loading
Personal Weather Stations






























Interactive Weather Map New forecast layout! Learn more

10-Day Weather Forecast

Advertisements
Track Severe Weather on mobile